sensor_id;sensor_type;location;lat;lon;timestamp;P1;durP1;ratioP1;P2;durP2;ratioP2
20391;SDS011;10355;53.688;10.078;2023-04-12T00:00:32;7.43;;;3.40;;
20391;SDS011;10355;53.688;10.078;2023-04-12T00:03:15;5.40;;;3.00;;
20391;SDS011;10355;53.688;10.078;2023-04-12T00:06:02;4.38;;;2.90;;
20391;SDS011;10355;53.688;10.078;2023-04-12T00:08:47;5.53;;;3.20;;
20391;SDS011;10355;53.688;10.078;2023-04-12T00:11:30;5.22;;;2.85;;
20391;SDS011;10355;53.688;10.078;2023-04-12T00:14:13;5.13;;;3.05;;
20391;SDS011;10355;53.688;10.078;2023-04-12T00:16:56;4.75;;;2.65;;
20391;SDS011;10355;53.688;10.078;2023-04-12T00:19:38;5.70;;;2.70;;
20391;SDS011;10355;53.688;10.078;2023-04-12T00:22:24;4.97;;;2.63;;
20391;SDS011;10355;53.688;10.078;2023-04-12T00:25:07;4.78;;;2.50;;
20391;SDS011;10355;53.688;10.078;2023-04-12T00:27:49;4.60;;;2.38;;
20391;SDS011;10355;53.688;10.078;2023-04-12T00:30:34;6.60;;;2.75;;
20391;SDS011;10355;53.688;10.078;2023-04-12T00:33:17;4.30;;;2.67;;
20391;SDS011;10355;53.688;10.078;2023-04-12T00:36:00;5.13;;;2.50;;
20391;SDS011;10355;53.688;10.078;2023-04-12T00:38:44;7.35;;;2.83;;
20391;SDS011;10355;53.688;10.078;2023-04-12T00:41:26;4.72;;;2.55;;
20391;SDS011;10355;53.688;10.078;2023-04-12T00:44:09;4.70;;;2.60;;
20391;SDS011;10355;53.688;10.078;2023-04-12T00:46:52;4.68;;;2.13;;
20391;SDS011;10355;53.688;10.078;2023-04-12T00:49:35;4.40;;;2.08;;
20391;SDS011;10355;53.688;10.078;2023-04-12T00:52:17;4.38;;;2.55;;
20391;SDS011;10355;53.688;10.078;2023-04-12T00:55:02;3.80;;;2.35;;
20391;SDS011;10355;53.688;10.078;2023-04-12T00:57:45;3.15;;;2.00;;
20391;SDS011;10355;53.688;10.078;2023-04-12T01:00:28;4.88;;;2.47;;
20391;SDS011;10355;53.688;10.078;2023-04-12T01:03:11;5.28;;;2.15;;
20391;SDS011;10355;53.688;10.078;2023-04-12T01:05:57;5.30;;;2.22;;
20391;SDS011;10355;53.688;10.078;2023-04-12T01:08:45;2.95;;;2.08;;
20391;SDS011;10355;53.688;10.078;2023-04-12T01:11:36;4.57;;;1.80;;
20391;SDS011;10355;53.688;10.078;2023-04-12T01:14:21;5.57;;;1.95;;
20391;SDS011;10355;53.688;10.078;2023-04-12T01:17:06;4.35;;;2.28;;
20391;SDS011;10355;53.688;10.078;2023-04-12T01:19:52;3.97;;;2.30;;
20391;SDS011;10355;53.688;10.078;2023-04-12T01:22:44;3.97;;;2.20;;
20391;SDS011;10355;53.688;10.078;2023-04-12T01:25:36;4.88;;;2.30;;
20391;SDS011;10355;53.688;10.078;2023-04-12T01:28:21;5.70;;;2.10;;
20391;SDS011;10355;53.688;10.078;2023-04-12T01:31:05;5.32;;;1.95;;
20391;SDS011;10355;53.688;10.078;2023-04-12T01:33:49;4.88;;;1.80;;
20391;SDS011;10355;53.688;10.078;2023-04-12T01:36:33;3.83;;;2.03;;
20391;SDS011;10355;53.688;10.078;2023-04-12T01:39:16;5.75;;;1.95;;
20391;SDS011;10355;53.688;10.078;2023-04-12T01:41:59;3.65;;;1.85;;
20391;SDS011;10355;53.688;10.078;2023-04-12T01:44:43;4.90;;;2.00;;
20391;SDS011;10355;53.688;10.078;2023-04-12T01:47:26;8.07;;;1.90;;
20391;SDS011;10355;53.688;10.078;2023-04-12T01:50:11;2.92;;;1.70;;
20391;SDS011;10355;53.688;10.078;2023-04-12T01:52:58;4.70;;;1.80;;
20391;SDS011;10355;53.688;10.078;2023-04-12T01:55:44;4.95;;;1.80;;
20391;SDS011;10355;53.688;10.078;2023-04-12T01:58:28;4.43;;;1.60;;
20391;SDS011;10355;53.688;10.078;2023-04-12T02:01:14;3.60;;;1.70;;
20391;SDS011;10355;53.688;10.078;2023-04-12T02:03:57;4.13;;;1.40;;
20391;SDS011;10355;53.688;10.078;2023-04-12T02:06:41;3.85;;;1.30;;
20391;SDS011;10355;53.688;10.078;2023-04-12T02:09:24;3.17;;;1.35;;
20391;SDS011;10355;53.688;10.078;2023-04-12T02:12:07;4.30;;;1.40;;
20391;SDS011;10355;53.688;10.078;2023-04-12T02:14:50;3.60;;;1.00;;
20391;SDS011;10355;53.688;10.078;2023-04-12T02:17:34;4.50;;;1.30;;
20391;SDS011;10355;53.688;10.078;2023-04-12T02:20:17;4.25;;;1.40;;
20391;SDS011;10355;53.688;10.078;2023-04-12T02:23:00;3.03;;;1.30;;
20391;SDS011;10355;53.688;10.078;2023-04-12T02:25:43;3.33;;;1.05;;
20391;SDS011;10355;53.688;10.078;2023-04-12T02:28:28;4.55;;;1.45;;
20391;SDS011;10355;53.688;10.078;2023-04-12T02:31:11;5.10;;;1.30;;
20391;SDS011;10355;53.688;10.078;2023-04-12T02:33:55;4.00;;;1.45;;
20391;SDS011;10355;53.688;10.078;2023-04-12T02:36:38;4.85;;;1.20;;
20391;SDS011;10355;53.688;10.078;2023-04-12T02:39:21;2.90;;;1.20;;
20391;SDS011;10355;53.688;10.078;2023-04-12T02:42:05;2.92;;;1.00;;
20391;SDS011;10355;53.688;10.078;2023-04-12T02:44:49;3.50;;;1.20;;
20391;SDS011;10355;53.688;10.078;2023-04-12T02:47:33;4.28;;;1.05;;
20391;SDS011;10355;53.688;10.078;2023-04-12T02:50:17;3.42;;;1.13;;
20391;SDS011;10355;53.688;10.078;2023-04-12T02:53:06;4.80;;;1.20;;
20391;SDS011;10355;53.688;10.078;2023-04-12T02:55:49;5.13;;;1.30;;
20391;SDS011;10355;53.688;10.078;2023-04-12T02:58:36;3.05;;;0.95;;
20391;SDS011;10355;53.688;10.078;2023-04-12T03:01:19;1.73;;;0.95;;
20391;SDS011;10355;53.688;10.078;2023-04-12T03:04:26;1.67;;;0.77;;
20391;SDS011;10355;53.688;10.078;2023-04-12T03:07:15;5.75;;;1.30;;
20391;SDS011;10355;53.688;10.078;2023-04-12T03:10:02;2.95;;;1.10;;
20391;SDS011;10355;53.688;10.078;2023-04-12T03:12:51;4.28;;;1.13;;
20391;SDS011;10355;53.688;10.078;2023-04-12T03:15:34;2.33;;;0.98;;
20391;SDS011;10355;53.688;10.078;2023-04-12T03:18:17;5.03;;;1.50;;
20391;SDS011;10355;53.688;10.078;2023-04-12T03:21:04;5.00;;;1.30;;
20391;SDS011;10355;53.688;10.078;2023-04-12T03:23:48;4.47;;;1.40;;
20391;SDS011;10355;53.688;10.078;2023-04-12T03:26:32;2.42;;;1.20;;
20391;SDS011;10355;53.688;10.078;2023-04-12T03:29:25;3.13;;;1.15;;
20391;SDS011;10355;53.688;10.078;2023-04-12T03:32:08;2.05;;;0.90;;
20391;SDS011;10355;53.688;10.078;2023-04-12T03:34:52;4.53;;;1.00;;
20391;SDS011;10355;53.688;10.078;2023-04-12T03:37:39;3.90;;;1.00;;
20391;SDS011;10355;53.688;10.078;2023-04-12T03:40:24;4.82;;;1.02;;
20391;SDS011;10355;53.688;10.078;2023-04-12T03:43:11;1.77;;;1.05;;
20391;SDS011;10355;53.688;10.078;2023-04-12T03:45:53;4.32;;;0.88;;
20391;SDS011;10355;53.688;10.078;2023-04-12T03:48:38;4.97;;;0.85;;
20391;SDS011;10355;53.688;10.078;2023-04-12T03:51:21;2.40;;;1.00;;
20391;SDS011;10355;53.688;10.078;2023-04-12T03:54:11;3.15;;;0.98;;
20391;SDS011;10355;53.688;10.078;2023-04-12T03:57:11;4.45;;;1.10;;
20391;SDS011;10355;53.688;10.078;2023-04-12T04:00:01;2.17;;;0.90;;
20391;SDS011;10355;53.688;10.078;2023-04-12T04:02:58;3.10;;;1.10;;
20391;SDS011;10355;53.688;10.078;2023-04-12T04:05:48;4.55;;;1.00;;
20391;SDS011;10355;53.688;10.078;2023-04-12T04:08:33;3.25;;;0.93;;
20391;SDS011;10355;53.688;10.078;2023-04-12T04:11:15;3.05;;;0.93;;
20391;SDS011;10355;53.688;10.078;2023-04-12T04:14:04;3.55;;;1.17;;
20391;SDS011;10355;53.688;10.078;2023-04-12T04:16:47;2.08;;;0.73;;
20391;SDS011;10355;53.688;10.078;2023-04-12T04:19:32;3.92;;;1.13;;
20391;SDS011;10355;53.688;10.078;2023-04-12T04:22:16;3.38;;;1.00;;
20391;SDS011;10355;53.688;10.078;2023-04-12T04:25:04;1.83;;;0.82;;
20391;SDS011;10355;53.688;10.078;2023-04-12T04:27:50;3.03;;;1.02;;
20391;SDS011;10355;53.688;10.078;2023-04-12T04:30:36;2.92;;;0.88;;
20391;SDS011;10355;53.688;10.078;2023-04-12T04:33:23;2.70;;;0.80;;
20391;SDS011;10355;53.688;10.078;2023-04-12T04:36:09;2.10;;;1.10;;
20391;SDS011;10355;53.688;10.078;2023-04-12T04:38:58;2.40;;;0.88;;
20391;SDS011;10355;53.688;10.078;2023-04-12T04:41:56;4.95;;;0.90;;
20391;SDS011;10355;53.688;10.078;2023-04-12T04:45:01;2.08;;;0.73;;
20391;SDS011;10355;53.688;10.078;2023-04-12T04:47:52;2.58;;;0.90;;
20391;SDS011;10355;53.688;10.078;2023-04-12T04:50:35;3.88;;;0.90;;
20391;SDS011;10355;53.688;10.078;2023-04-12T04:53:20;4.15;;;1.00;;
20391;SDS011;10355;53.688;10.078;2023-04-12T04:56:03;2.83;;;0.82;;
20391;SDS011;10355;53.688;10.078;2023-04-12T04:58:48;2.38;;;1.00;;
20391;SDS011;10355;53.688;10.078;2023-04-12T05:01:32;3.63;;;1.00;;
20391;SDS011;10355;53.688;10.078;2023-04-12T05:04:19;2.55;;;0.70;;
20391;SDS011;10355;53.688;10.078;2023-04-12T05:07:02;2.28;;;0.90;;
20391;SDS011;10355;53.688;10.078;2023-04-12T05:09:45;4.22;;;1.10;;
20391;SDS011;10355;53.688;10.078;2023-04-12T05:12:27;2.47;;;0.80;;
20391;SDS011;10355;53.688;10.078;2023-04-12T05:15:11;2.95;;;0.85;;
20391;SDS011;10355;53.688;10.078;2023-04-12T05:17:54;2.30;;;0.75;;
20391;SDS011;10355;53.688;10.078;2023-04-12T05:20:39;1.58;;;0.70;;
20391;SDS011;10355;53.688;10.078;2023-04-12T05:23:21;1.80;;;0.68;;
20391;SDS011;10355;53.688;10.078;2023-04-12T05:26:05;3.17;;;0.90;;
20391;SDS011;10355;53.688;10.078;2023-04-12T05:28:48;2.10;;;0.98;;
20391;SDS011;10355;53.688;10.078;2023-04-12T05:31:33;3.50;;;0.98;;
20391;SDS011;10355;53.688;10.078;2023-04-12T05:34:20;2.13;;;0.93;;
20391;SDS011;10355;53.688;10.078;2023-04-12T05:37:10;3.45;;;0.90;;
20391;SDS011;10355;53.688;10.078;2023-04-12T05:39:53;2.35;;;0.98;;
20391;SDS011;10355;53.688;10.078;2023-04-12T05:42:35;4.10;;;1.00;;
20391;SDS011;10355;53.688;10.078;2023-04-12T05:45:18;2.50;;;0.70;;
20391;SDS011;10355;53.688;10.078;2023-04-12T05:48:01;2.60;;;0.90;;
20391;SDS011;10355;53.688;10.078;2023-04-12T05:50:49;2.10;;;0.90;;
20391;SDS011;10355;53.688;10.078;2023-04-12T05:53:33;3.28;;;1.00;;
20391;SDS011;10355;53.688;10.078;2023-04-12T05:56:18;1.95;;;0.90;;
20391;SDS011;10355;53.688;10.078;2023-04-12T05:59:01;3.22;;;0.90;;
20391;SDS011;10355;53.688;10.078;2023-04-12T06:01:45;3.10;;;0.93;;
20391;SDS011;10355;53.688;10.078;2023-04-12T06:04:31;3.80;;;1.05;;
20391;SDS011;10355;53.688;10.078;2023-04-12T06:07:30;1.88;;;0.90;;
20391;SDS011;10355;53.688;10.078;2023-04-12T06:10:15;3.25;;;1.02;;
20391;SDS011;10355;53.688;10.078;2023-04-12T06:13:02;1.63;;;0.90;;
20391;SDS011;10355;53.688;10.078;2023-04-12T06:15:45;3.95;;;0.98;;
20391;SDS011;10355;53.688;10.078;2023-04-12T06:18:28;2.95;;;1.10;;
20391;SDS011;10355;53.688;10.078;2023-04-12T06:21:11;2.58;;;1.10;;
20391;SDS011;10355;53.688;10.078;2023-04-12T06:23:55;1.67;;;0.88;;
20391;SDS011;10355;53.688;10.078;2023-04-12T06:26:39;3.00;;;1.33;;
20391;SDS011;10355;53.688;10.078;2023-04-12T06:29:23;3.90;;;1.10;;
20391;SDS011;10355;53.688;10.078;2023-04-12T06:32:06;3.45;;;1.00;;
20391;SDS011;10355;53.688;10.078;2023-04-12T06:34:49;3.85;;;1.08;;
20391;SDS011;10355;53.688;10.078;2023-04-12T06:37:32;3.03;;;1.00;;
20391;SDS011;10355;53.688;10.078;2023-04-12T06:40:14;3.90;;;1.10;;
20391;SDS011;10355;53.688;10.078;2023-04-12T06:42:58;3.17;;;1.08;;
20391;SDS011;10355;53.688;10.078;2023-04-12T06:45:41;4.20;;;1.23;;
20391;SDS011;10355;53.688;10.078;2023-04-12T06:48:24;3.45;;;1.00;;
20391;SDS011;10355;53.688;10.078;2023-04-12T06:51:06;2.72;;;1.05;;
20391;SDS011;10355;53.688;10.078;2023-04-12T06:53:49;2.47;;;1.20;;
20391;SDS011;10355;53.688;10.078;2023-04-12T06:56:32;2.10;;;1.27;;
20391;SDS011;10355;53.688;10.078;2023-04-12T06:59:17;3.50;;;1.10;;
20391;SDS011;10355;53.688;10.078;2023-04-12T07:01:59;3.35;;;1.27;;
20391;SDS011;10355;53.688;10.078;2023-04-12T07:04:42;2.22;;;1.20;;
20391;SDS011;10355;53.688;10.078;2023-04-12T07:07:25;7.47;;;1.40;;
20391;SDS011;10355;53.688;10.078;2023-04-12T07:10:08;2.53;;;1.02;;
20391;SDS011;10355;53.688;10.078;2023-04-12T07:12:51;3.20;;;1.45;;
20391;SDS011;10355;53.688;10.078;2023-04-12T07:15:35;2.28;;;1.05;;
20391;SDS011;10355;53.688;10.078;2023-04-12T07:18:17;4.18;;;1.13;;
20391;SDS011;10355;53.688;10.078;2023-04-12T07:21:00;4.35;;;1.17;;
20391;SDS011;10355;53.688;10.078;2023-04-12T07:23:43;4.90;;;1.05;;
20391;SDS011;10355;53.688;10.078;2023-04-12T07:26:28;2.20;;;1.00;;
20391;SDS011;10355;53.688;10.078;2023-04-12T07:29:11;1.70;;;0.90;;
20391;SDS011;10355;53.688;10.078;2023-04-12T07:31:55;2.20;;;0.93;;
20391;SDS011;10355;53.688;10.078;2023-04-12T07:34:40;4.75;;;1.40;;
20391;SDS011;10355;53.688;10.078;2023-04-12T07:37:22;4.57;;;1.50;;
20391;SDS011;10355;53.688;10.078;2023-04-12T07:40:05;4.57;;;1.42;;
20391;SDS011;10355;53.688;10.078;2023-04-12T07:42:48;4.90;;;1.48;;
20391;SDS011;10355;53.688;10.078;2023-04-12T07:45:31;5.82;;;1.50;;
20391;SDS011;10355;53.688;10.078;2023-04-12T07:48:15;5.55;;;1.30;;
20391;SDS011;10355;53.688;10.078;2023-04-12T07:50:57;3.05;;;1.00;;
20391;SDS011;10355;53.688;10.078;2023-04-12T07:53:41;4.47;;;1.23;;
20391;SDS011;10355;53.688;10.078;2023-04-12T07:56:28;7.53;;;1.45;;
20391;SDS011;10355;53.688;10.078;2023-04-12T07:59:11;3.72;;;1.27;;
20391;SDS011;10355;53.688;10.078;2023-04-12T08:01:53;4.28;;;1.52;;
20391;SDS011;10355;53.688;10.078;2023-04-12T08:04:37;5.85;;;1.30;;
20391;SDS011;10355;53.688;10.078;2023-04-12T08:07:24;3.17;;;1.17;;
20391;SDS011;10355;53.688;10.078;2023-04-12T08:10:07;3.50;;;1.40;;
20391;SDS011;10355;53.688;10.078;2023-04-12T08:12:50;2.67;;;1.30;;
20391;SDS011;10355;53.688;10.078;2023-04-12T08:15:33;2.53;;;1.10;;
20391;SDS011;10355;53.688;10.078;2023-04-12T08:18:16;2.10;;;1.10;;
20391;SDS011;10355;53.688;10.078;2023-04-12T08:21:00;4.72;;;1.05;;
20391;SDS011;10355;53.688;10.078;2023-04-12T08:23:42;2.25;;;1.13;;
20391;SDS011;10355;53.688;10.078;2023-04-12T08:26:25;4.00;;;1.20;;
20391;SDS011;10355;53.688;10.078;2023-04-12T08:29:10;2.55;;;0.90;;
20391;SDS011;10355;53.688;10.078;2023-04-12T08:31:52;4.28;;;1.23;;
20391;SDS011;10355;53.688;10.078;2023-04-12T08:34:36;3.88;;;1.30;;
20391;SDS011;10355;53.688;10.078;2023-04-12T08:37:20;4.03;;;1.77;;
20391;SDS011;10355;53.688;10.078;2023-04-12T08:40:04;4.90;;;1.48;;
20391;SDS011;10355;53.688;10.078;2023-04-12T08:42:48;3.25;;;1.30;;
20391;SDS011;10355;53.688;10.078;2023-04-12T08:45:32;3.15;;;1.63;;
20391;SDS011;10355;53.688;10.078;2023-04-12T08:48:16;4.18;;;1.35;;
20391;SDS011;10355;53.688;10.078;2023-04-12T08:50:59;3.03;;;1.23;;
20391;SDS011;10355;53.688;10.078;2023-04-12T08:53:43;2.53;;;1.35;;
20391;SDS011;10355;53.688;10.078;2023-04-12T08:56:26;3.50;;;1.15;;
20391;SDS011;10355;53.688;10.078;2023-04-12T08:59:09;3.45;;;1.30;;
20391;SDS011;10355;53.688;10.078;2023-04-12T09:01:52;3.08;;;1.10;;
20391;SDS011;10355;53.688;10.078;2023-04-12T09:04:45;1.88;;;1.13;;
20391;SDS011;10355;53.688;10.078;2023-04-12T09:07:29;1.95;;;0.98;;
20391;SDS011;10355;53.688;10.078;2023-04-12T09:10:13;3.25;;;1.00;;
20391;SDS011;10355;53.688;10.078;2023-04-12T09:13:11;2.58;;;1.20;;
20391;SDS011;10355;53.688;10.078;2023-04-12T09:15:53;2.47;;;1.15;;
20391;SDS011;10355;53.688;10.078;2023-04-12T09:18:41;3.60;;;1.33;;
20391;SDS011;10355;53.688;10.078;2023-04-12T09:21:28;3.70;;;1.25;;
20391;SDS011;10355;53.688;10.078;2023-04-12T09:24:11;1.50;;;1.00;;
20391;SDS011;10355;53.688;10.078;2023-04-12T09:27:01;2.28;;;1.10;;
20391;SDS011;10355;53.688;10.078;2023-04-12T09:29:44;2.45;;;1.13;;
20391;SDS011;10355;53.688;10.078;2023-04-12T09:32:31;2.60;;;1.10;;
20391;SDS011;10355;53.688;10.078;2023-04-12T09:35:14;2.13;;;1.00;;
20391;SDS011;10355;53.688;10.078;2023-04-12T09:37:57;3.40;;;1.13;;
20391;SDS011;10355;53.688;10.078;2023-04-12T09:40:48;4.45;;;1.00;;
20391;SDS011;10355;53.688;10.078;2023-04-12T09:43:38;3.17;;;1.08;;
20391;SDS011;10355;53.688;10.078;2023-04-12T09:46:20;3.83;;;1.05;;
20391;SDS011;10355;53.688;10.078;2023-04-12T09:49:04;3.70;;;1.10;;
20391;SDS011;10355;53.688;10.078;2023-04-12T09:51:49;2.75;;;1.20;;
20391;SDS011;10355;53.688;10.078;2023-04-12T09:54:33;2.45;;;1.00;;
20391;SDS011;10355;53.688;10.078;2023-04-12T09:57:17;2.58;;;1.10;;
20391;SDS011;10355;53.688;10.078;2023-04-12T10:00:02;4.97;;;1.13;;
20391;SDS011;10355;53.688;10.078;2023-04-12T10:02:53;1.98;;;0.95;;
20391;SDS011;10355;53.688;10.078;2023-04-12T10:05:36;4.10;;;1.10;;
20391;SDS011;10355;53.688;10.078;2023-04-12T10:08:21;2.78;;;1.05;;
20391;SDS011;10355;53.688;10.078;2023-04-12T10:11:04;3.30;;;0.82;;
20391;SDS011;10355;53.688;10.078;2023-04-12T10:13:48;3.33;;;0.98;;
20391;SDS011;10355;53.688;10.078;2023-04-12T10:16:33;2.47;;;0.80;;
20391;SDS011;10355;53.688;10.078;2023-04-12T10:19:16;5.10;;;1.00;;
20391;SDS011;10355;53.688;10.078;2023-04-12T10:21:59;3.53;;;1.00;;
20391;SDS011;10355;53.688;10.078;2023-04-12T10:24:43;3.45;;;1.05;;
20391;SDS011;10355;53.688;10.078;2023-04-12T10:27:26;5.13;;;1.45;;
20391;SDS011;10355;53.688;10.078;2023-04-12T10:30:19;5.05;;;1.08;;
20391;SDS011;10355;53.688;10.078;2023-04-12T10:33:14;2.85;;;1.10;;
20391;SDS011;10355;53.688;10.078;2023-04-12T10:35:58;6.45;;;1.13;;
20391;SDS011;10355;53.688;10.078;2023-04-12T10:38:44;4.63;;;1.13;;
20391;SDS011;10355;53.688;10.078;2023-04-12T10:41:29;2.83;;;0.95;;
20391;SDS011;10355;53.688;10.078;2023-04-12T10:44:24;3.50;;;1.00;;
20391;SDS011;10355;53.688;10.078;2023-04-12T10:47:07;3.95;;;1.15;;
20391;SDS011;10355;53.688;10.078;2023-04-12T10:55:54;3.97;;;1.00;;
20391;SDS011;10355;53.688;10.078;2023-04-12T10:58:54;2.80;;;1.05;;
20391;SDS011;10355;53.688;10.078;2023-04-12T11:01:40;5.22;;;1.02;;
20391;SDS011;10355;53.688;10.078;2023-04-12T11:04:23;3.30;;;1.05;;
20391;SDS011;10355;53.688;10.078;2023-04-12T11:07:32;2.80;;;1.10;;
20391;SDS011;10355;53.688;10.078;2023-04-12T11:10:39;2.00;;;1.02;;
20391;SDS011;10355;53.688;10.078;2023-04-12T11:13:34;3.63;;;0.95;;
20391;SDS011;10355;53.688;10.078;2023-04-12T11:16:17;3.03;;;0.90;;
20391;SDS011;10355;53.688;10.078;2023-04-12T11:19:00;4.15;;;1.08;;
20391;SDS011;10355;53.688;10.078;2023-04-12T11:21:42;2.38;;;1.15;;
20391;SDS011;10355;53.688;10.078;2023-04-12T11:24:25;2.40;;;1.02;;
20391;SDS011;10355;53.688;10.078;2023-04-12T11:27:08;1.92;;;1.20;;
20391;SDS011;10355;53.688;10.078;2023-04-12T11:29:53;3.70;;;1.13;;
20391;SDS011;10355;53.688;10.078;2023-04-12T11:32:36;2.53;;;1.35;;
20391;SDS011;10355;53.688;10.078;2023-04-12T11:35:21;4.03;;;1.65;;
20391;SDS011;10355;53.688;10.078;2023-04-12T11:38:07;3.58;;;1.40;;
20391;SDS011;10355;53.688;10.078;2023-04-12T11:40:50;3.38;;;1.40;;
20391;SDS011;10355;53.688;10.078;2023-04-12T11:43:33;3.55;;;1.25;;
20391;SDS011;10355;53.688;10.078;2023-04-12T11:46:17;4.63;;;1.35;;
20391;SDS011;10355;53.688;10.078;2023-04-12T11:49:00;5.13;;;1.40;;
20391;SDS011;10355;53.688;10.078;2023-04-12T11:51:43;4.47;;;1.50;;
20391;SDS011;10355;53.688;10.078;2023-04-12T11:54:29;3.30;;;1.58;;
20391;SDS011;10355;53.688;10.078;2023-04-12T11:57:14;2.90;;;1.65;;
20391;SDS011;10355;53.688;10.078;2023-04-12T11:59:57;6.32;;;1.55;;
20391;SDS011;10355;53.688;10.078;2023-04-12T12:02:42;8.45;;;1.75;;
20391;SDS011;10355;53.688;10.078;2023-04-12T12:05:44;3.70;;;1.73;;
20391;SDS011;10355;53.688;10.078;2023-04-12T12:08:27;6.07;;;1.80;;
20391;SDS011;10355;53.688;10.078;2023-04-12T12:11:10;5.68;;;1.58;;
20391;SDS011;10355;53.688;10.078;2023-04-12T12:13:53;6.63;;;1.60;;
20391;SDS011;10355;53.688;10.078;2023-04-12T12:16:37;4.32;;;1.73;;
20391;SDS011;10355;53.688;10.078;2023-04-12T12:19:29;3.88;;;1.58;;
20391;SDS011;10355;53.688;10.078;2023-04-12T12:22:13;5.38;;;2.08;;
20391;SDS011;10355;53.688;10.078;2023-04-12T12:24:56;3.95;;;1.75;;
20391;SDS011;10355;53.688;10.078;2023-04-12T12:27:39;4.72;;;1.75;;
20391;SDS011;10355;53.688;10.078;2023-04-12T12:30:24;5.97;;;2.05;;
20391;SDS011;10355;53.688;10.078;2023-04-12T12:33:07;2.15;;;1.42;;
20391;SDS011;10355;53.688;10.078;2023-04-12T12:35:56;3.75;;;1.77;;
20391;SDS011;10355;53.688;10.078;2023-04-12T12:38:39;3.65;;;1.73;;
20391;SDS011;10355;53.688;10.078;2023-04-12T12:41:23;4.35;;;1.90;;
20391;SDS011;10355;53.688;10.078;2023-04-12T12:44:07;3.83;;;1.75;;
20391;SDS011;10355;53.688;10.078;2023-04-12T12:46:51;4.30;;;1.50;;
20391;SDS011;10355;53.688;10.078;2023-04-12T12:49:46;3.22;;;1.70;;
20391;SDS011;10355;53.688;10.078;2023-04-12T12:52:31;5.72;;;1.85;;
20391;SDS011;10355;53.688;10.078;2023-04-12T12:55:14;5.20;;;1.90;;
20391;SDS011;10355;53.688;10.078;2023-04-12T12:57:57;4.68;;;1.70;;
20391;SDS011;10355;53.688;10.078;2023-04-12T13:00:48;3.55;;;1.80;;
20391;SDS011;10355;53.688;10.078;2023-04-12T13:03:31;5.30;;;1.95;;
20391;SDS011;10355;53.688;10.078;2023-04-12T13:06:14;5.93;;;1.80;;
20391;SDS011;10355;53.688;10.078;2023-04-12T13:08:58;4.03;;;2.05;;
20391;SDS011;10355;53.688;10.078;2023-04-12T13:11:41;3.42;;;2.00;;
20391;SDS011;10355;53.688;10.078;2023-04-12T13:14:23;4.28;;;1.90;;
20391;SDS011;10355;53.688;10.078;2023-04-12T13:17:06;4.30;;;1.70;;
20391;SDS011;10355;53.688;10.078;2023-04-12T13:19:49;5.55;;;1.65;;
20391;SDS011;10355;53.688;10.078;2023-04-12T13:22:32;5.10;;;1.75;;
20391;SDS011;10355;53.688;10.078;2023-04-12T13:25:16;3.13;;;1.70;;
20391;SDS011;10355;53.688;10.078;2023-04-12T13:28:00;6.10;;;1.83;;
20391;SDS011;10355;53.688;10.078;2023-04-12T13:30:42;2.85;;;1.63;;
20391;SDS011;10355;53.688;10.078;2023-04-12T13:33:26;3.83;;;1.65;;
20391;SDS011;10355;53.688;10.078;2023-04-12T13:36:08;2.45;;;1.15;;
20391;SDS011;10355;53.688;10.078;2023-04-12T13:38:51;3.58;;;1.30;;
20391;SDS011;10355;53.688;10.078;2023-04-12T13:41:35;3.03;;;1.20;;
20391;SDS011;10355;53.688;10.078;2023-04-12T13:44:18;1.75;;;1.00;;
20391;SDS011;10355;53.688;10.078;2023-04-12T13:47:01;2.22;;;1.00;;
20391;SDS011;10355;53.688;10.078;2023-04-12T13:49:44;2.30;;;0.80;;
20391;SDS011;10355;53.688;10.078;2023-04-12T13:52:26;3.90;;;0.90;;
20391;SDS011;10355;53.688;10.078;2023-04-12T13:55:09;1.77;;;0.95;;
20391;SDS011;10355;53.688;10.078;2023-04-12T13:57:53;1.95;;;0.98;;
20391;SDS011;10355;53.688;10.078;2023-04-12T14:00:36;2.08;;;0.90;;
20391;SDS011;10355;53.688;10.078;2023-04-12T14:03:19;2.75;;;1.10;;
20391;SDS011;10355;53.688;10.078;2023-04-12T14:06:02;2.17;;;0.90;;
20391;SDS011;10355;53.688;10.078;2023-04-12T14:08:45;2.83;;;0.88;;
20391;SDS011;10355;53.688;10.078;2023-04-12T14:11:28;1.60;;;1.00;;
20391;SDS011;10355;53.688;10.078;2023-04-12T14:14:12;3.17;;;0.90;;
20391;SDS011;10355;53.688;10.078;2023-04-12T14:16:57;3.33;;;0.90;;
20391;SDS011;10355;53.688;10.078;2023-04-12T14:19:42;2.33;;;0.90;;
20391;SDS011;10355;53.688;10.078;2023-04-12T14:22:25;4.30;;;1.10;;
20391;SDS011;10355;53.688;10.078;2023-04-12T14:25:08;2.78;;;0.93;;
20391;SDS011;10355;53.688;10.078;2023-04-12T14:27:52;2.90;;;1.08;;
20391;SDS011;10355;53.688;10.078;2023-04-12T14:30:36;2.90;;;1.10;;
20391;SDS011;10355;53.688;10.078;2023-04-12T14:33:18;2.65;;;1.13;;
20391;SDS011;10355;53.688;10.078;2023-04-12T14:36:01;1.95;;;1.10;;
20391;SDS011;10355;53.688;10.078;2023-04-12T14:38:45;2.70;;;1.30;;
20391;SDS011;10355;53.688;10.078;2023-04-12T14:41:28;3.85;;;1.15;;
20391;SDS011;10355;53.688;10.078;2023-04-12T14:44:11;2.55;;;1.10;;
20391;SDS011;10355;53.688;10.078;2023-04-12T14:46:55;1.77;;;1.05;;
20391;SDS011;10355;53.688;10.078;2023-04-12T14:49:38;2.03;;;1.20;;
20391;SDS011;10355;53.688;10.078;2023-04-12T14:52:21;3.88;;;1.30;;
20391;SDS011;10355;53.688;10.078;2023-04-12T14:55:04;1.60;;;1.10;;
20391;SDS011;10355;53.688;10.078;2023-04-12T14:57:46;2.60;;;1.30;;
20391;SDS011;10355;53.688;10.078;2023-04-12T15:00:29;4.65;;;1.52;;
20391;SDS011;10355;53.688;10.078;2023-04-12T15:03:13;2.78;;;1.35;;
20391;SDS011;10355;53.688;10.078;2023-04-12T15:05:57;3.20;;;1.52;;
20391;SDS011;10355;53.688;10.078;2023-04-12T15:08:39;3.42;;;1.20;;
20391;SDS011;10355;53.688;10.078;2023-04-12T15:11:26;2.95;;;1.20;;
20391;SDS011;10355;53.688;10.078;2023-04-12T15:14:08;3.83;;;1.63;;
20391;SDS011;10355;53.688;10.078;2023-04-12T15:16:51;4.05;;;1.00;;
20391;SDS011;10355;53.688;10.078;2023-04-12T15:19:35;2.13;;;1.20;;
20391;SDS011;10355;53.688;10.078;2023-04-12T15:22:18;2.55;;;1.20;;
20391;SDS011;10355;53.688;10.078;2023-04-12T15:25:01;1.73;;;1.00;;
20391;SDS011;10355;53.688;10.078;2023-04-12T15:27:44;2.03;;;0.80;;
20391;SDS011;10355;53.688;10.078;2023-04-12T15:30:26;2.85;;;1.02;;
20391;SDS011;10355;53.688;10.078;2023-04-12T15:33:09;2.63;;;1.08;;
20391;SDS011;10355;53.688;10.078;2023-04-12T15:35:53;3.00;;;1.20;;
20391;SDS011;10355;53.688;10.078;2023-04-12T15:38:39;2.45;;;1.10;;
20391;SDS011;10355;53.688;10.078;2023-04-12T15:41:22;4.05;;;1.30;;
20391;SDS011;10355;53.688;10.078;2023-04-12T15:44:05;3.90;;;1.30;;
20391;SDS011;10355;53.688;10.078;2023-04-12T15:46:47;2.30;;;1.27;;
20391;SDS011;10355;53.688;10.078;2023-04-12T15:49:50;2.75;;;1.00;;
20391;SDS011;10355;53.688;10.078;2023-04-12T15:52:36;3.83;;;1.38;;
20391;SDS011;10355;53.688;10.078;2023-04-12T15:55:18;1.98;;;1.20;;
20391;SDS011;10355;53.688;10.078;2023-04-12T15:58:02;1.60;;;1.10;;
20391;SDS011;10355;53.688;10.078;2023-04-12T16:00:44;2.88;;;1.02;;
20391;SDS011;10355;53.688;10.078;2023-04-12T16:03:28;1.92;;;1.10;;
20391;SDS011;10355;53.688;10.078;2023-04-12T16:06:12;3.25;;;1.15;;
20391;SDS011;10355;53.688;10.078;2023-04-12T16:09:01;1.52;;;1.00;;
20391;SDS011;10355;53.688;10.078;2023-04-12T16:11:45;2.05;;;1.17;;
20391;SDS011;10355;53.688;10.078;2023-04-12T16:14:28;1.88;;;1.20;;
20391;SDS011;10355;53.688;10.078;2023-04-12T16:17:12;1.70;;;1.13;;
20391;SDS011;10355;53.688;10.078;2023-04-12T16:19:55;4.22;;;1.08;;
20391;SDS011;10355;53.688;10.078;2023-04-12T16:22:39;2.60;;;1.17;;